sensor_id;sensor_type;location;lat;lon;timestamp;pressure;altitude;pressure_sealevel;temperature;humidity
62402;BME280;48440;51.224;22.506;2022-11-15T00:00:25;99681.50;;;6.34;80.35
62402;BME280;48440;51.224;22.506;2022-11-15T00:02:52;99669.06;;;6.33;80.20
62402;BME280;48440;51.224;22.506;2022-11-15T00:05:18;99668.22;;;6.32;80.22
62402;BME280;48440;51.224;22.506;2022-11-15T00:07:43;99673.84;;;6.31;79.97
62402;BME280;48440;51.224;22.506;2022-11-15T00:10:09;99665.75;;;6.31;79.87
62402;BME280;48440;51.224;22.506;2022-11-15T00:12:34;99671.75;;;6.33;79.65
62402;BME280;48440;51.224;22.506;2022-11-15T00:15:00;99652.72;;;6.28;80.03
62402;BME280;48440;51.224;22.506;2022-11-15T00:17:26;99657.72;;;6.24;79.89
62402;BME280;48440;51.224;22.506;2022-11-15T00:19:51;99656.09;;;6.23;79.94
62402;BME280;48440;51.224;22.506;2022-11-15T00:22:17;99655.28;;;6.16;80.07
62402;BME280;48440;51.224;22.506;2022-11-15T00:24:42;99646.16;;;6.17;80.82
62402;BME280;48440;51.224;22.506;2022-11-15T00:27:08;99648.78;;;6.24;80.18
62402;BME280;48440;51.224;22.506;2022-11-15T00:29:34;99651.06;;;6.27;80.30
62402;BME280;48440;51.224;22.506;2022-11-15T00:31:59;99651.28;;;6.25;79.91
62402;BME280;48440;51.224;22.506;2022-11-15T00:34:25;99652.94;;;6.26;80.18
62402;BME280;48440;51.224;22.506;2022-11-15T00:36:50;99648.16;;;6.28;80.49
62402;BME280;48440;51.224;22.506;2022-11-15T00:39:16;99646.50;;;6.27;80.08
62402;BME280;48440;51.224;22.506;2022-11-15T00:41:42;99638.19;;;6.29;79.94
62402;BME280;48440;51.224;22.506;2022-11-15T00:44:07;99644.41;;;6.29;80.30
62402;BME280;48440;51.224;22.506;2022-11-15T00:46:33;99637.16;;;6.30;79.90
62402;BME280;48440;51.224;22.506;2022-11-15T00:48:58;99631.97;;;6.28;80.34
62402;BME280;48440;51.224;22.506;2022-11-15T00:51:24;99626.59;;;6.28;80.43
62402;BME280;48440;51.224;22.506;2022-11-15T00:53:49;99627.84;;;6.26;80.49
62402;BME280;48440;51.224;22.506;2022-11-15T00:56:15;99623.06;;;6.28;80.77
62402;BME280;48440;51.224;22.506;2022-11-15T00:58:40;99618.94;;;6.25;80.53
62402;BME280;48440;51.224;22.506;2022-11-15T01:01:07;99613.09;;;6.28;80.78
62402;BME280;48440;51.224;22.506;2022-11-15T01:03:34;99607.56;;;6.23;80.67
62402;BME280;48440;51.224;22.506;2022-11-15T01:06:00;99611.75;;;6.19;80.58
62402;BME280;48440;51.224;22.506;2022-11-15T01:08:26;99603.88;;;6.18;81.42
62402;BME280;48440;51.224;22.506;2022-11-15T01:10:51;99600.28;;;6.24;81.15
62402;BME280;48440;51.224;22.506;2022-11-15T01:13:17;99606.50;;;6.24;81.43
62402;BME280;48440;51.224;22.506;2022-11-15T01:15:43;99604.88;;;6.23;81.26
62402;BME280;48440;51.224;22.506;2022-11-15T01:18:08;99597.22;;;6.20;81.81
62402;BME280;48440;51.224;22.506;2022-11-15T01:20:34;99591.00;;;6.20;81.82
62402;BME280;48440;51.224;22.506;2022-11-15T01:22:59;99591.41;;;6.23;81.68
62402;BME280;48440;51.224;22.506;2022-11-15T01:25:25;99587.63;;;6.24;82.00
62402;BME280;48440;51.224;22.506;2022-11-15T01:27:50;99584.72;;;6.26;81.96
62402;BME280;48440;51.224;22.506;2022-11-15T01:30:16;99588.25;;;6.26;81.44
62402;BME280;48440;51.224;22.506;2022-11-15T01:32:42;99580.84;;;6.22;81.37
62402;BME280;48440;51.224;22.506;2022-11-15T01:35:07;99571.94;;;6.21;81.42
62402;BME280;48440;51.224;22.506;2022-11-15T01:37:33;99570.50;;;6.19;81.40
62402;BME280;48440;51.224;22.506;2022-11-15T01:39:58;99572.81;;;6.15;81.49
62402;BME280;48440;51.224;22.506;2022-11-15T01:42:24;99569.06;;;6.16;81.59
62402;BME280;48440;51.224;22.506;2022-11-15T01:44:50;99563.25;;;6.19;81.55
62402;BME280;48440;51.224;22.506;2022-11-15T01:47:25;99564.28;;;6.18;81.10
62402;BME280;48440;51.224;22.506;2022-11-15T01:50:05;99562.25;;;6.13;81.15
62402;BME280;48440;51.224;22.506;2022-11-15T01:52:32;99559.16;;;6.10;81.55
62402;BME280;48440;51.224;22.506;2022-11-15T01:55:32;99559.59;;;6.07;81.56
62402;BME280;48440;51.224;22.506;2022-11-15T01:58:00;99558.16;;;6.04;81.93
62402;BME280;48440;51.224;22.506;2022-11-15T02:00:28;99552.75;;;6.04;81.95
62402;BME280;48440;51.224;22.506;2022-11-15T02:02:54;99552.56;;;6.06;81.26
62402;BME280;48440;51.224;22.506;2022-11-15T02:05:20;99554.19;;;6.07;81.30
62402;BME280;48440;51.224;22.506;2022-11-15T02:07:45;99547.16;;;6.06;81.62
62402;BME280;48440;51.224;22.506;2022-11-15T02:10:17;99542.59;;;6.06;81.65
62402;BME280;48440;51.224;22.506;2022-11-15T02:12:43;99543.66;;;6.05;81.62
62402;BME280;48440;51.224;22.506;2022-11-15T02:15:09;99542.81;;;6.05;81.81
62402;BME280;48440;51.224;22.506;2022-11-15T02:29:08;99538.06;;;6.00;82.18
62402;BME280;48440;51.224;22.506;2022-11-15T02:32:33;99533.16;;;5.97;82.51
62402;BME280;48440;51.224;22.506;2022-11-15T02:37:31;99523.03;;;5.93;81.62
62402;BME280;48440;51.224;22.506;2022-11-15T02:40:06;99519.34;;;5.80;82.31
62402;BME280;48440;51.224;22.506;2022-11-15T02:42:41;99524.13;;;5.78;82.22
62402;BME280;48440;51.224;22.506;2022-11-15T02:45:33;99520.19;;;5.81;82.40
62402;BME280;48440;51.224;22.506;2022-11-15T02:48:01;99513.66;;;5.70;82.46
62402;BME280;48440;51.224;22.506;2022-11-15T02:50:30;99516.69;;;5.74;82.69
62402;BME280;48440;51.224;22.506;2022-11-15T02:52:57;99515.63;;;5.82;81.94
62402;BME280;48440;51.224;22.506;2022-11-15T02:57:54;99501.38;;;5.74;82.27
62402;BME280;48440;51.224;22.506;2022-11-15T03:00:23;99506.00;;;5.67;82.99
62402;BME280;48440;51.224;22.506;2022-11-15T03:08:19;99502.69;;;5.65;83.06
62402;BME280;48440;51.224;22.506;2022-11-15T03:11:07;99494.41;;;5.67;83.61
62402;BME280;48440;51.224;22.506;2022-11-15T03:14:01;99494.13;;;5.75;83.07
62402;BME280;48440;51.224;22.506;2022-11-15T03:16:38;99491.84;;;5.72;83.11
62402;BME280;48440;51.224;22.506;2022-11-15T03:19:26;99484.59;;;5.72;83.51
62402;BME280;48440;51.224;22.506;2022-11-15T03:21:55;99477.13;;;5.74;83.02
62402;BME280;48440;51.224;22.506;2022-11-15T03:24:24;99479.59;;;5.76;82.66
62402;BME280;48440;51.224;22.506;2022-11-15T03:26:52;99480.66;;;5.75;83.09
62402;BME280;48440;51.224;22.506;2022-11-15T03:29:32;99481.25;;;5.77;83.02
62402;BME280;48440;51.224;22.506;2022-11-15T03:32:03;99481.47;;;5.75;82.93
62402;BME280;48440;51.224;22.506;2022-11-15T03:34:52;99475.38;;;5.62;83.29
62402;BME280;48440;51.224;22.506;2022-11-15T03:37:22;99473.94;;;5.59;83.28
62402;BME280;48440;51.224;22.506;2022-11-15T03:39:50;99474.19;;;5.51;83.79
62402;BME280;48440;51.224;22.506;2022-11-15T03:42:38;99472.72;;;5.55;84.29
62402;BME280;48440;51.224;22.506;2022-11-15T03:45:14;99475.81;;;5.59;84.04
62402;BME280;48440;51.224;22.506;2022-11-15T03:47:47;99466.88;;;5.65;83.74
62402;BME280;48440;51.224;22.506;2022-11-15T03:50:18;99473.69;;;5.67;83.87
62402;BME280;48440;51.224;22.506;2022-11-15T03:52:45;99471.25;;;5.59;83.33
62402;BME280;48440;51.224;22.506;2022-11-15T03:55:16;99463.44;;;5.51;83.04
62402;BME280;48440;51.224;22.506;2022-11-15T03:57:42;99457.63;;;5.54;83.56
62402;BME280;48440;51.224;22.506;2022-11-15T04:00:08;99451.19;;;5.55;83.88
62402;BME280;48440;51.224;22.506;2022-11-15T04:02:33;99441.84;;;5.58;83.71
62402;BME280;48440;51.224;22.506;2022-11-15T04:04:59;99441.19;;;5.62;83.62
62402;BME280;48440;51.224;22.506;2022-11-15T04:07:24;99436.66;;;5.63;83.61
62402;BME280;48440;51.224;22.506;2022-11-15T04:09:50;99443.28;;;5.60;83.55
62402;BME280;48440;51.224;22.506;2022-11-15T04:12:30;99438.94;;;5.59;83.73
62402;BME280;48440;51.224;22.506;2022-11-15T04:15:00;99421.97;;;5.59;83.91
62402;BME280;48440;51.224;22.506;2022-11-15T04:17:33;99426.69;;;5.63;83.67
62402;BME280;48440;51.224;22.506;2022-11-15T04:19:58;99423.56;;;5.66;83.76
62402;BME280;48440;51.224;22.506;2022-11-15T04:22:42;99411.81;;;5.61;83.63
62402;BME280;48440;51.224;22.506;2022-11-15T04:25:26;99419.28;;;5.59;83.77
62402;BME280;48440;51.224;22.506;2022-11-15T04:27:52;99401.34;;;5.46;83.49
62402;BME280;48440;51.224;22.506;2022-11-15T04:30:17;99408.63;;;5.45;84.22
62402;BME280;48440;51.224;22.506;2022-11-15T04:32:43;99408.84;;;5.44;83.74
62402;BME280;48440;51.224;22.506;2022-11-15T04:35:09;99405.34;;;5.43;83.72
62402;BME280;48440;51.224;22.506;2022-11-15T04:37:34;99401.84;;;5.36;84.29
62402;BME280;48440;51.224;22.506;2022-11-15T04:39:59;99393.34;;;5.39;84.29
62402;BME280;48440;51.224;22.506;2022-11-15T04:42:25;99393.13;;;5.41;83.89
62402;BME280;48440;51.224;22.506;2022-11-15T04:44:51;99394.00;;;5.35;84.41
62402;BME280;48440;51.224;22.506;2022-11-15T04:47:16;99396.44;;;5.43;84.32
62402;BME280;48440;51.224;22.506;2022-11-15T04:49:42;99397.69;;;5.40;84.21
62402;BME280;48440;51.224;22.506;2022-11-15T04:52:09;99401.03;;;5.36;84.44
62402;BME280;48440;51.224;22.506;2022-11-15T04:54:34;99394.38;;;5.38;84.72
62402;BME280;48440;51.224;22.506;2022-11-15T04:57:00;99392.91;;;5.42;84.63
62402;BME280;48440;51.224;22.506;2022-11-15T04:59:26;99389.41;;;5.42;84.36
62402;BME280;48440;51.224;22.506;2022-11-15T05:01:51;99386.28;;;5.45;84.61
62402;BME280;48440;51.224;22.506;2022-11-15T05:04:17;99382.75;;;5.44;84.45
62402;BME280;48440;51.224;22.506;2022-11-15T05:06:49;99387.75;;;5.41;84.86
62402;BME280;48440;51.224;22.506;2022-11-15T05:09:16;99377.94;;;5.46;84.60
62402;BME280;48440;51.224;22.506;2022-11-15T05:11:42;99379.81;;;5.46;84.48
62402;BME280;48440;51.224;22.506;2022-11-15T05:14:08;99377.59;;;5.43;84.36
62402;BME280;48440;51.224;22.506;2022-11-15T05:16:33;99365.41;;;5.40;84.42
62402;BME280;48440;51.224;22.506;2022-11-15T05:18:59;99371.88;;;5.33;85.40
62402;BME280;48440;51.224;22.506;2022-11-15T05:21:24;99372.91;;;5.32;84.60
62402;BME280;48440;51.224;22.506;2022-11-15T05:23:50;99372.25;;;5.36;84.63
62402;BME280;48440;51.224;22.506;2022-11-15T05:26:17;99373.91;;;5.37;84.53
62402;BME280;48440;51.224;22.506;2022-11-15T05:28:43;99367.13;;;5.28;84.62
62402;BME280;48440;51.224;22.506;2022-11-15T05:31:14;99372.03;;;5.38;85.02
62402;BME280;48440;51.224;22.506;2022-11-15T05:33:40;99361.50;;;5.36;84.48
62402;BME280;48440;51.224;22.506;2022-11-15T05:36:18;99363.09;;;5.44;85.01
62402;BME280;48440;51.224;22.506;2022-11-15T05:38:47;99361.66;;;5.41;84.45
62402;BME280;48440;51.224;22.506;2022-11-15T05:41:15;99356.53;;;5.33;84.61
62402;BME280;48440;51.224;22.506;2022-11-15T05:43:42;99358.63;;;5.31;85.29
62402;BME280;48440;51.224;22.506;2022-11-15T05:46:08;99350.78;;;5.30;84.68
62402;BME280;48440;51.224;22.506;2022-11-15T05:48:36;99352.63;;;5.29;84.79
62402;BME280;48440;51.224;22.506;2022-11-15T05:51:04;99351.59;;;5.30;84.48
62402;BME280;48440;51.224;22.506;2022-11-15T05:53:30;99353.34;;;5.18;84.38
62402;BME280;48440;51.224;22.506;2022-11-15T05:55:56;99353.50;;;5.23;84.82
62402;BME280;48440;51.224;22.506;2022-11-15T05:58:22;99337.66;;;5.15;85.10
62402;BME280;48440;51.224;22.506;2022-11-15T06:00:47;99340.94;;;5.17;85.19
62402;BME280;48440;51.224;22.506;2022-11-15T06:03:13;99329.50;;;5.22;84.68
62402;BME280;48440;51.224;22.506;2022-11-15T06:05:39;99329.47;;;5.28;84.73
62402;BME280;48440;51.224;22.506;2022-11-15T06:08:05;99333.81;;;5.29;84.77
62402;BME280;48440;51.224;22.506;2022-11-15T06:10:31;99337.34;;;5.23;84.72
62402;BME280;48440;51.224;22.506;2022-11-15T06:13:03;99333.31;;;5.14;84.99
62402;BME280;48440;51.224;22.506;2022-11-15T06:15:29;99330.94;;;5.24;85.04
62402;BME280;48440;51.224;22.506;2022-11-15T06:17:57;99330.50;;;5.27;84.77
62402;BME280;48440;51.224;22.506;2022-11-15T06:20:24;99337.31;;;5.30;84.49
62402;BME280;48440;51.224;22.506;2022-11-15T06:22:50;99337.97;;;5.25;84.50
62402;BME280;48440;51.224;22.506;2022-11-15T06:25:15;99340.34;;;5.15;84.69
62402;BME280;48440;51.224;22.506;2022-11-15T06:27:41;99340.72;;;5.19;84.22
62402;BME280;48440;51.224;22.506;2022-11-15T06:30:07;99333.84;;;5.23;83.95
62402;BME280;48440;51.224;22.506;2022-11-15T06:32:32;99337.78;;;5.20;83.99
62402;BME280;48440;51.224;22.506;2022-11-15T06:34:58;99342.75;;;5.23;83.71
62402;BME280;48440;51.224;22.506;2022-11-15T06:37:23;99335.94;;;5.21;84.29
62402;BME280;48440;51.224;22.506;2022-11-15T06:39:49;99343.19;;;5.20;84.35
62402;BME280;48440;51.224;22.506;2022-11-15T06:42:14;99344.16;;;5.26;84.11
62402;BME280;48440;51.224;22.506;2022-11-15T06:44:40;99340.44;;;5.27;84.08
62402;BME280;48440;51.224;22.506;2022-11-15T06:47:05;99333.84;;;5.23;83.63
62402;BME280;48440;51.224;22.506;2022-11-15T06:49:31;99327.41;;;5.24;83.62
62402;BME280;48440;51.224;22.506;2022-11-15T06:51:56;99331.16;;;5.23;83.85
62402;BME280;48440;51.224;22.506;2022-11-15T06:54:22;99331.63;;;5.20;84.12
62402;BME280;48440;51.224;22.506;2022-11-15T06:56:47;99338.63;;;5.21;83.45
62402;BME280;48440;51.224;22.506;2022-11-15T06:59:13;99337.56;;;5.22;82.99
62402;BME280;48440;51.224;22.506;2022-11-15T07:01:38;99338.56;;;5.27;83.49
62402;BME280;48440;51.224;22.506;2022-11-15T07:04:04;99335.88;;;5.27;83.32
62402;BME280;48440;51.224;22.506;2022-11-15T07:06:29;99341.03;;;5.29;83.42
62402;BME280;48440;51.224;22.506;2022-11-15T07:08:55;99331.75;;;5.25;83.13
62402;BME280;48440;51.224;22.506;2022-11-15T07:11:21;99334.44;;;5.25;83.03
62402;BME280;48440;51.224;22.506;2022-11-15T07:13:47;99347.03;;;5.31;83.40
62402;BME280;48440;51.224;22.506;2022-11-15T07:16:13;99341.59;;;5.37;83.56
62402;BME280;48440;51.224;22.506;2022-11-15T07:18:39;99348.25;;;5.35;83.07
62402;BME280;48440;51.224;22.506;2022-11-15T07:21:08;99346.59;;;5.34;83.21
62402;BME280;48440;51.224;22.506;2022-11-15T07:23:38;99349.94;;;5.29;83.67
62402;BME280;48440;51.224;22.506;2022-11-15T07:26:05;99344.28;;;5.37;83.62
62402;BME280;48440;51.224;22.506;2022-11-15T07:28:30;99340.78;;;5.37;83.03
62402;BME280;48440;51.224;22.506;2022-11-15T07:30:56;99347.81;;;5.38;83.63
62402;BME280;48440;51.224;22.506;2022-11-15T07:33:22;99339.53;;;5.39;83.82
62402;BME280;48440;51.224;22.506;2022-11-15T07:35:47;99347.50;;;5.46;83.10
62402;BME280;48440;51.224;22.506;2022-11-15T07:38:16;99339.69;;;5.44;83.07
62402;BME280;48440;51.224;22.506;2022-11-15T07:40:46;99339.91;;;5.43;82.94
62402;BME280;48440;51.224;22.506;2022-11-15T07:43:12;99340.56;;;5.38;82.47
62402;BME280;48440;51.224;22.506;2022-11-15T07:45:42;99335.84;;;5.34;82.33
62402;BME280;48440;51.224;22.506;2022-11-15T07:48:08;99339.13;;;5.36;82.41
62402;BME280;48440;51.224;22.506;2022-11-15T07:50:33;99338.91;;;5.37;82.25
62402;BME280;48440;51.224;22.506;2022-11-15T07:52:59;99330.22;;;5.35;82.96
62402;BME280;48440;51.224;22.506;2022-11-15T07:55:27;99333.97;;;5.34;82.62
62402;BME280;48440;51.224;22.506;2022-11-15T07:58:03;99331.84;;;5.43;82.70
62402;BME280;48440;51.224;22.506;2022-11-15T08:00:29;99324.94;;;5.47;83.14
62402;BME280;48440;51.224;22.506;2022-11-15T08:03:21;99329.06;;;5.50;83.21
62402;BME280;48440;51.224;22.506;2022-11-15T08:05:51;99327.41;;;5.49;82.49
62402;BME280;48440;51.224;22.506;2022-11-15T08:08:17;99320.59;;;5.46;82.66
62402;BME280;48440;51.224;22.506;2022-11-15T08:10:42;99317.78;;;5.41;83.10
62402;BME280;48440;51.224;22.506;2022-11-15T08:13:10;99319.19;;;5.43;83.07
62402;BME280;48440;51.224;22.506;2022-11-15T08:15:36;99322.25;;;5.47;83.33
62402;BME280;48440;51.224;22.506;2022-11-15T08:18:10;99318.47;;;5.55;83.52
62402;BME280;48440;51.224;22.506;2022-11-15T08:20:36;99309.34;;;5.56;82.75
62402;BME280;48440;51.224;22.506;2022-11-15T08:23:03;99309.06;;;5.64;82.88
62402;BME280;48440;51.224;22.506;2022-11-15T08:25:30;99309.28;;;5.62;82.51
62402;BME280;48440;51.224;22.506;2022-11-15T08:27:58;99304.50;;;5.64;81.78
62402;BME280;48440;51.224;22.506;2022-11-15T08:30:24;99300.81;;;5.59;81.98
62402;BME280;48440;51.224;22.506;2022-11-15T08:32:51;99305.59;;;5.57;81.81
62402;BME280;48440;51.224;22.506;2022-11-15T08:35:18;99305.78;;;5.62;81.49
62402;BME280;48440;51.224;22.506;2022-11-15T08:37:44;99309.13;;;5.57;81.83
62402;BME280;48440;51.224;22.506;2022-11-15T08:40:10;99307.25;;;5.58;81.49
62402;BME280;48440;51.224;22.506;2022-11-15T08:42:36;99307.09;;;5.53;82.13
62402;BME280;48440;51.224;22.506;2022-11-15T08:45:02;99308.13;;;5.52;81.37
62402;BME280;48440;51.224;22.506;2022-11-15T08:47:29;99304.84;;;5.50;82.26
62402;BME280;48440;51.224;22.506;2022-11-15T08:49:54;99303.78;;;5.51;82.00
62402;BME280;48440;51.224;22.506;2022-11-15T08:52:20;99308.13;;;5.52;81.74
62402;BME280;48440;51.224;22.506;2022-11-15T08:54:46;99307.47;;;5.56;81.80
62402;BME280;48440;51.224;22.506;2022-11-15T08:57:12;99301.03;;;5.57;81.85
62402;BME280;48440;51.224;22.506;2022-11-15T08:59:37;99303.47;;;5.65;81.83
62402;BME280;48440;51.224;22.506;2022-11-15T09:02:04;99306.75;;;5.67;81.60
62402;BME280;48440;51.224;22.506;2022-11-15T09:04:30;99306.53;;;5.69;81.68
62402;BME280;48440;51.224;22.506;2022-11-15T09:06:56;99298.28;;;5.64;81.83
62402;BME280;48440;51.224;22.506;2022-11-15T09:09:22;99296.38;;;5.71;81.63
62402;BME280;48440;51.224;22.506;2022-11-15T09:11:47;99298.38;;;5.75;81.28
62402;BME280;48440;51.224;22.506;2022-11-15T09:14:14;99289.63;;;5.80;81.29
62402;BME280;48440;51.224;22.506;2022-11-15T09:16:40;99288.63;;;5.74;81.11
62402;BME280;48440;51.224;22.506;2022-11-15T09:19:06;99283.56;;;5.66;81.43
62402;BME280;48440;51.224;22.506;2022-11-15T09:21:31;99274.50;;;5.79;80.80
62402;BME280;48440;51.224;22.506;2022-11-15T09:23:57;99270.53;;;5.82;81.46
62402;BME280;48440;51.224;22.506;2022-11-15T09:26:23;99286.03;;;5.86;81.17
62402;BME280;48440;51.224;22.506;2022-11-15T09:28:49;99273.00;;;5.83;81.32
62402;BME280;48440;51.224;22.506;2022-11-15T09:31:15;99273.00;;;5.83;81.26
62402;BME280;48440;51.224;22.506;2022-11-15T09:33:43;99269.28;;;5.84;81.33
62402;BME280;48440;51.224;22.506;2022-11-15T09:36:09;99260.72;;;5.94;81.22
62402;BME280;48440;51.224;22.506;2022-11-15T09:38:35;99261.66;;;5.99;80.80
62402;BME280;48440;51.224;22.506;2022-11-15T09:41:38;99265.78;;;6.02;80.60
62402;BME280;48440;51.224;22.506;2022-11-15T09:44:25;99257.47;;;6.03;80.43
62402;BME280;48440;51.224;22.506;2022-11-15T09:49:55;99247.06;;;6.07;80.52
62402;BME280;48440;51.224;22.506;2022-11-15T09:52:22;99252.00;;;6.10;80.96
62402;BME280;48440;51.224;22.506;2022-11-15T09:54:50;99242.03;;;6.10;80.28
62402;BME280;48440;51.224;22.506;2022-11-15T09:57:57;99236.44;;;6.12;80.76
62402;BME280;48440;51.224;22.506;2022-11-15T10:00:29;99224.91;;;6.05;80.72
62402;BME280;48440;51.224;22.506;2022-11-15T10:03:19;99221.25;;;5.99;80.68
62402;BME280;48440;51.224;22.506;2022-11-15T10:05:50;99211.22;;;6.06;80.50
62402;BME280;48440;51.224;22.506;2022-11-15T10:08:31;99219.22;;;6.13;80.55
62402;BME280;48440;51.224;22.506;2022-11-15T10:11:07;99211.97;;;6.13;80.65
62402;BME280;48440;51.224;22.506;2022-11-15T10:13:35;99207.53;;;6.19;80.24
62402;BME280;48440;51.224;22.506;2022-11-15T10:21:45;99194.69;;;6.33;79.97
62402;BME280;48440;51.224;22.506;2022-11-15T10:24:19;99197.28;;;6.39;80.18
62402;BME280;48440;51.224;22.506;2022-11-15T10:26:48;99198.34;;;6.38;80.18
62402;BME280;48440;51.224;22.506;2022-11-15T10:29:21;99200.81;;;6.40;79.89
62402;BME280;48440;51.224;22.506;2022-11-15T10:31:47;99190.72;;;6.35;80.26
62402;BME280;48440;51.224;22.506;2022-11-15T10:34:16;99188.84;;;6.36;80.09
62402;BME280;48440;51.224;22.506;2022-11-15T10:36:53;99180.00;;;6.29;80.36
62402;BME280;48440;51.224;22.506;2022-11-15T10:39:19;99182.72;;;6.29;80.47
62402;BME280;48440;51.224;22.506;2022-11-15T10:41:44;99171.47;;;6.32;80.84
62402;BME280;48440;51.224;22.506;2022-11-15T10:46:44;99163.28;;;6.38;80.76
62402;BME280;48440;51.224;22.506;2022-11-15T10:54:46;99152.50;;;6.38;80.86
62402;BME280;48440;51.224;22.506;2022-11-15T10:57:14;99144.19;;;6.40;80.83
62402;BME280;48440;51.224;22.506;2022-11-15T10:59:46;99148.91;;;6.44;81.12
62402;BME280;48440;51.224;22.506;2022-11-15T11:08:01;99142.91;;;6.54;80.64
62402;BME280;48440;51.224;22.506;2022-11-15T11:10:27;99137.88;;;6.58;80.32
62402;BME280;48440;51.224;22.506;2022-11-15T11:12:53;99137.06;;;6.57;80.83
62402;BME280;48440;51.224;22.506;2022-11-15T11:15:19;99123.94;;;6.61;80.72
62402;BME280;48440;51.224;22.506;2022-11-15T11:20:25;99121.84;;;6.63;80.67
62402;BME280;48440;51.224;22.506;2022-11-15T11:25:34;99123.94;;;6.61;80.94
62402;BME280;48440;51.224;22.506;2022-11-15T11:28:28;99115.97;;;6.66;80.95
62402;BME280;48440;51.224;22.506;2022-11-15T11:31:31;99098.63;;;6.62;80.41
62402;BME280;48440;51.224;22.506;2022-11-15T11:34:13;99106.00;;;6.66;80.86
62402;BME280;48440;51.224;22.506;2022-11-15T11:39:52;99085.13;;;6.62;80.88
62402;BME280;48440;51.224;22.506;2022-11-15T11:42:33;99088.19;;;6.65;80.97
62402;BME280;48440;51.224;22.506;2022-11-15T11:47:42;99076.47;;;6.71;81.00
62402;BME280;48440;51.224;22.506;2022-11-15T11:50:25;99078.13;;;6.72;80.71
62402;BME280;48440;51.224;22.506;2022-11-15T11:53:03;99074.47;;;6.78;80.78
62402;BME280;48440;51.224;22.506;2022-11-15T11:55:35;99081.25;;;6.81;80.88
62402;BME280;48440;51.224;22.506;2022-11-15T11:58:16;99068.38;;;6.83;80.35
62402;BME280;48440;51.224;22.506;2022-11-15T12:00:50;99063.31;;;6.87;80.79
62402;BME280;48440;51.224;22.506;2022-11-15T12:05:54;99063.91;;;6.89;80.89
62402;BME280;48440;51.224;22.506;2022-11-15T12:11:17;99056.47;;;7.07;80.25
62402;BME280;48440;51.224;22.506;2022-11-15T12:13:48;99051.78;;;7.03;80.15
62402;BME280;48440;51.224;22.506;2022-11-15T12:16:20;99050.97;;;7.02;80.35
62402;BME280;48440;51.224;22.506;2022-11-15T12:18:53;99040.91;;;6.98;80.36
62402;BME280;48440;51.224;22.506;2022-11-15T12:23:58;99039.13;;;7.03;80.65
62402;BME280;48440;51.224;22.506;2022-11-15T12:26:31;99043.47;;;7.04;80.64
62402;BME280;48440;51.224;22.506;2022-11-15T12:29:01;99031.25;;;7.02;80.56
62402;BME280;48440;51.224;22.506;2022-11-15T12:31:39;99034.22;;;7.00;80.54
62402;BME280;48440;51.224;22.506;2022-11-15T12:34:29;99025.31;;;7.00;80.80
62402;BME280;48440;51.224;22.506;2022-11-15T12:36:55;99032.09;;;7.02;80.67
62402;BME280;48440;51.224;22.506;2022-11-15T12:39:21;99024.50;;;6.99;80.55
62402;BME280;48440;51.224;22.506;2022-11-15T13:02:22;98995.78;;;6.81;82.35
62402;BME280;48440;51.224;22.506;2022-11-15T13:04:49;98986.63;;;6.82;82.69
62402;BME280;48440;51.224;22.506;2022-11-15T13:09:59;98985.91;;;6.87;82.44
62402;BME280;48440;51.224;22.506;2022-11-15T13:14:56;98985.91;;;6.87;82.66
62402;BME280;48440;51.224;22.506;2022-11-15T13:19:53;98985.22;;;6.92;82.21
62402;BME280;48440;51.224;22.506;2022-11-15T13:22:20;98974.31;;;6.87;82.00
62402;BME280;48440;51.224;22.506;2022-11-15T13:25:04;98977.72;;;6.82;82.73
62402;BME280;48440;51.224;22.506;2022-11-15T13:27:40;98974.66;;;6.78;82.95
62402;BME280;48440;51.224;22.506;2022-11-15T13:30:15;98976.31;;;6.79;82.99
62402;BME280;48440;51.224;22.506;2022-11-15T13:32:41;98968.81;;;6.81;83.36
62402;BME280;48440;51.224;22.506;2022-11-15T13:35:07;98969.38;;;6.84;83.36
62402;BME280;48440;51.224;22.506;2022-11-15T13:37:33;98962.47;;;6.88;83.11
62402;BME280;48440;51.224;22.506;2022-11-15T13:40:28;98959.41;;;6.84;82.81
62402;BME280;48440;51.224;22.506;2022-11-15T13:42:56;98961.06;;;6.85;83.43
62402;BME280;48440;51.224;22.506;2022-11-15T13:45:23;98970.19;;;6.84;83.25
62402;BME280;48440;51.224;22.506;2022-11-15T13:47:54;98965.88;;;6.83;83.18
62402;BME280;48440;51.224;22.506;2022-11-15T13:50:26;98962.59;;;6.81;83.05
62402;BME280;48440;51.224;22.506;2022-11-15T13:52:57;98966.09;;;6.81;83.13
62402;BME280;48440;51.224;22.506;2022-11-15T13:55:24;98964.34;;;6.87;83.06
62402;BME280;48440;51.224;22.506;2022-11-15T13:57:59;98964.34;;;6.87;83.54
62402;BME280;48440;51.224;22.506;2022-11-15T14:05:33;98951.19;;;6.91;82.72
62402;BME280;48440;51.224;22.506;2022-11-15T14:08:03;98953.31;;;6.89;83.37
62402;BME280;48440;51.224;22.506;2022-11-15T14:10:35;98950.25;;;6.85;83.15
62402;BME280;48440;51.224;22.506;2022-11-15T14:13:02;98952.84;;;6.80;83.02
62402;BME280;48440;51.224;22.506;2022-11-15T14:17:55;98952.44;;;6.71;83.57
62402;BME280;48440;51.224;22.506;2022-11-15T14:23:04;98946.91;;;6.66;83.91
62402;BME280;48440;51.224;22.506;2022-11-15T14:25:31;98950.91;;;6.64;84.04
62402;BME280;48440;51.224;22.506;2022-11-15T14:30:48;98943.19;;;6.56;84.01
62402;BME280;48440;51.224;22.506;2022-11-15T14:35:43;98938.50;;;6.51;84.41
62402;BME280;48440;51.224;22.506;2022-11-15T14:38:09;98933.09;;;6.51;84.38
62402;BME280;48440;51.224;22.506;2022-11-15T14:40:34;98933.38;;;6.50;84.48
62402;BME280;48440;51.224;22.506;2022-11-15T14:43:00;98930.78;;;6.43;84.50
62402;BME280;48440;51.224;22.506;2022-11-15T14:45:26;98932.09;;;6.40;84.14
62402;BME280;48440;51.224;22.506;2022-11-15T14:47:52;98926.94;;;6.39;84.40
62402;BME280;48440;51.224;22.506;2022-11-15T14:50:21;98930.69;;;6.38;84.40
62402;BME280;48440;51.224;22.506;2022-11-15T14:52:48;98927.41;;;6.36;84.24
62402;BME280;48440;51.224;22.506;2022-11-15T14:55:18;98929.50;;;6.34;84.47
62402;BME280;48440;51.224;22.506;2022-11-15T14:57:44;98922.47;;;6.33;84.63